sensor_id;sensor_type;location;lat;lon;timestamp;P1;durP1;ratioP1;P2;durP2;ratioP2
23866;SDS011;12114;53.404;-1.502;2023-08-07T00:00:50;6.30;;;2.22;;
23866;SDS011;12114;53.404;-1.502;2023-08-07T00:03:34;5.97;;;2.25;;
23866;SDS011;12114;53.404;-1.502;2023-08-07T00:06:19;3.97;;;2.00;;
23866;SDS011;12114;53.404;-1.502;2023-08-07T00:09:02;4.00;;;1.90;;
23866;SDS011;12114;53.404;-1.502;2023-08-07T00:11:46;5.28;;;2.00;;
23866;SDS011;12114;53.404;-1.502;2023-08-07T00:14:30;3.38;;;1.88;;
23866;SDS011;12114;53.404;-1.502;2023-08-07T00:17:14;6.53;;;2.22;;
23866;SDS011;12114;53.404;-1.502;2023-08-07T00:19:58;4.95;;;1.83;;
23866;SDS011;12114;53.404;-1.502;2023-08-07T00:22:42;8.50;;;2.25;;
23866;SDS011;12114;53.404;-1.502;2023-08-07T00:25:26;4.57;;;2.28;;
23866;SDS011;12114;53.404;-1.502;2023-08-07T00:28:10;4.72;;;2.50;;
23866;SDS011;12114;53.404;-1.502;2023-08-07T00:30:54;3.42;;;1.90;;
23866;SDS011;12114;53.404;-1.502;2023-08-07T00:33:38;5.97;;;1.85;;
23866;SDS011;12114;53.404;-1.502;2023-08-07T00:36:22;4.30;;;2.20;;
23866;SDS011;12114;53.404;-1.502;2023-08-07T00:39:07;4.13;;;2.10;;
23866;SDS011;12114;53.404;-1.502;2023-08-07T00:41:52;7.72;;;1.98;;
23866;SDS011;12114;53.404;-1.502;2023-08-07T00:44:35;5.38;;;2.38;;
23866;SDS011;12114;53.404;-1.502;2023-08-07T00:47:19;4.28;;;2.40;;
23866;SDS011;12114;53.404;-1.502;2023-08-07T00:50:03;7.43;;;2.60;;
23866;SDS011;12114;53.404;-1.502;2023-08-07T00:52:47;4.55;;;2.60;;
23866;SDS011;12114;53.404;-1.502;2023-08-07T00:55:31;8.85;;;2.72;;
23866;SDS011;12114;53.404;-1.502;2023-08-07T00:58:15;8.07;;;2.60;;
23866;SDS011;12114;53.404;-1.502;2023-08-07T01:01:00;7.38;;;2.10;;
23866;SDS011;12114;53.404;-1.502;2023-08-07T01:03:44;3.88;;;2.35;;
23866;SDS011;12114;53.404;-1.502;2023-08-07T01:06:28;4.60;;;2.20;;
23866;SDS011;12114;53.404;-1.502;2023-08-07T01:09:12;4.43;;;2.33;;
23866;SDS011;12114;53.404;-1.502;2023-08-07T01:11:59;6.90;;;2.58;;
23866;SDS011;12114;53.404;-1.502;2023-08-07T01:17:48;3.95;;;2.67;;
23866;SDS011;12114;53.404;-1.502;2023-08-07T01:20:33;5.82;;;2.60;;
23866;SDS011;12114;53.404;-1.502;2023-08-07T01:23:16;6.97;;;2.95;;
23866;SDS011;12114;53.404;-1.502;2023-08-07T01:26:00;4.03;;;2.60;;
23866;SDS011;12114;53.404;-1.502;2023-08-07T01:28:46;3.97;;;2.50;;
23866;SDS011;12114;53.404;-1.502;2023-08-07T01:31:34;6.22;;;3.05;;
23866;SDS011;12114;53.404;-1.502;2023-08-07T01:34:20;6.40;;;2.83;;
23866;SDS011;12114;53.404;-1.502;2023-08-07T01:37:05;5.30;;;2.78;;
23866;SDS011;12114;53.404;-1.502;2023-08-07T01:39:50;4.43;;;3.00;;
23866;SDS011;12114;53.404;-1.502;2023-08-07T01:42:35;5.10;;;2.58;;
23866;SDS011;12114;53.404;-1.502;2023-08-07T01:45:23;6.25;;;3.10;;
23866;SDS011;12114;53.404;-1.502;2023-08-07T01:48:07;5.85;;;2.72;;
23866;SDS011;12114;53.404;-1.502;2023-08-07T01:50:52;5.97;;;3.00;;
23866;SDS011;12114;53.404;-1.502;2023-08-07T01:53:36;6.00;;;3.05;;
23866;SDS011;12114;53.404;-1.502;2023-08-07T01:56:20;5.28;;;2.90;;
23866;SDS011;12114;53.404;-1.502;2023-08-07T01:59:04;7.72;;;3.25;;
23866;SDS011;12114;53.404;-1.502;2023-08-07T02:01:48;7.10;;;3.15;;
23866;SDS011;12114;53.404;-1.502;2023-08-07T02:04:32;6.10;;;3.03;;
23866;SDS011;12114;53.404;-1.502;2023-08-07T02:07:16;6.10;;;2.92;;
23866;SDS011;12114;53.404;-1.502;2023-08-07T02:10:00;6.45;;;2.75;;
23866;SDS011;12114;53.404;-1.502;2023-08-07T02:12:44;6.03;;;2.60;;
23866;SDS011;12114;53.404;-1.502;2023-08-07T02:15:28;7.10;;;2.50;;
23866;SDS011;12114;53.404;-1.502;2023-08-07T02:18:11;4.88;;;2.20;;
23866;SDS011;12114;53.404;-1.502;2023-08-07T02:20:55;6.05;;;2.40;;
23866;SDS011;12114;53.404;-1.502;2023-08-07T02:23:39;4.43;;;2.33;;
23866;SDS011;12114;53.404;-1.502;2023-08-07T02:26:23;7.15;;;2.60;;
23866;SDS011;12114;53.404;-1.502;2023-08-07T02:29:07;5.57;;;2.33;;
23866;SDS011;12114;53.404;-1.502;2023-08-07T02:31:52;4.25;;;2.10;;
23866;SDS011;12114;53.404;-1.502;2023-08-07T02:34:36;5.50;;;1.83;;
23866;SDS011;12114;53.404;-1.502;2023-08-07T02:37:20;5.32;;;2.08;;
23866;SDS011;12114;53.404;-1.502;2023-08-07T02:40:04;3.17;;;2.17;;
23866;SDS011;12114;53.404;-1.502;2023-08-07T02:42:48;4.00;;;2.10;;
23866;SDS011;12114;53.404;-1.502;2023-08-07T02:45:33;5.53;;;2.38;;
23866;SDS011;12114;53.404;-1.502;2023-08-07T02:48:17;4.47;;;1.80;;
23866;SDS011;12114;53.404;-1.502;2023-08-07T02:51:01;3.17;;;1.85;;
23866;SDS011;12114;53.404;-1.502;2023-08-07T02:53:45;6.78;;;2.20;;
23866;SDS011;12114;53.404;-1.502;2023-08-07T02:56:29;2.58;;;2.13;;
23866;SDS011;12114;53.404;-1.502;2023-08-07T02:59:13;7.93;;;2.03;;
23866;SDS011;12114;53.404;-1.502;2023-08-07T03:01:57;3.22;;;1.80;;
23866;SDS011;12114;53.404;-1.502;2023-08-07T03:04:41;4.72;;;1.95;;
23866;SDS011;12114;53.404;-1.502;2023-08-07T03:07:25;3.63;;;2.38;;
23866;SDS011;12114;53.404;-1.502;2023-08-07T03:10:09;6.78;;;2.20;;
23866;SDS011;12114;53.404;-1.502;2023-08-07T03:12:53;7.05;;;2.25;;
23866;SDS011;12114;53.404;-1.502;2023-08-07T03:15:37;4.88;;;2.45;;
23866;SDS011;12114;53.404;-1.502;2023-08-07T03:18:21;6.65;;;2.10;;
23866;SDS011;12114;53.404;-1.502;2023-08-07T03:21:04;7.60;;;2.30;;
23866;SDS011;12114;53.404;-1.502;2023-08-07T03:23:48;6.00;;;2.10;;
23866;SDS011;12114;53.404;-1.502;2023-08-07T03:26:33;6.53;;;2.30;;
23866;SDS011;12114;53.404;-1.502;2023-08-07T03:29:16;5.40;;;2.30;;
23866;SDS011;12114;53.404;-1.502;2023-08-07T03:32:00;3.92;;;2.40;;
23866;SDS011;12114;53.404;-1.502;2023-08-07T03:34:44;5.07;;;2.30;;
23866;SDS011;12114;53.404;-1.502;2023-08-07T03:37:28;6.30;;;2.47;;
23866;SDS011;12114;53.404;-1.502;2023-08-07T03:40:12;5.78;;;2.20;;
23866;SDS011;12114;53.404;-1.502;2023-08-07T03:42:56;4.05;;;2.30;;
23866;SDS011;12114;53.404;-1.502;2023-08-07T03:45:40;4.95;;;1.92;;
23866;SDS011;12114;53.404;-1.502;2023-08-07T03:48:24;3.72;;;1.65;;
23866;SDS011;12114;53.404;-1.502;2023-08-07T03:51:08;5.13;;;1.85;;
23866;SDS011;12114;53.404;-1.502;2023-08-07T03:53:52;6.60;;;2.10;;
23866;SDS011;12114;53.404;-1.502;2023-08-07T03:56:36;3.25;;;1.90;;
23866;SDS011;12114;53.404;-1.502;2023-08-07T03:59:21;6.22;;;2.30;;
23866;SDS011;12114;53.404;-1.502;2023-08-07T04:02:05;8.45;;;2.20;;
23866;SDS011;12114;53.404;-1.502;2023-08-07T04:04:49;4.97;;;1.63;;
23866;SDS011;12114;53.404;-1.502;2023-08-07T04:07:33;3.58;;;1.90;;
23866;SDS011;12114;53.404;-1.502;2023-08-07T04:10:17;5.60;;;1.75;;
23866;SDS011;12114;53.404;-1.502;2023-08-07T04:13:01;4.00;;;1.60;;
23866;SDS011;12114;53.404;-1.502;2023-08-07T04:15:45;7.80;;;1.52;;
23866;SDS011;12114;53.404;-1.502;2023-08-07T04:18:29;8.07;;;1.50;;
23866;SDS011;12114;53.404;-1.502;2023-08-07T04:21:13;6.22;;;1.52;;
23866;SDS011;12114;53.404;-1.502;2023-08-07T04:23:56;3.45;;;1.20;;
23866;SDS011;12114;53.404;-1.502;2023-08-07T04:26:40;2.75;;;1.30;;
23866;SDS011;12114;53.404;-1.502;2023-08-07T04:29:24;4.85;;;1.20;;
23866;SDS011;12114;53.404;-1.502;2023-08-07T04:32:09;5.32;;;1.42;;
23866;SDS011;12114;53.404;-1.502;2023-08-07T04:34:53;5.40;;;1.33;;
23866;SDS011;12114;53.404;-1.502;2023-08-07T04:37:37;3.03;;;1.25;;
23866;SDS011;12114;53.404;-1.502;2023-08-07T04:40:21;2.10;;;0.95;;
23866;SDS011;12114;53.404;-1.502;2023-08-07T04:43:05;6.05;;;1.25;;
23866;SDS011;12114;53.404;-1.502;2023-08-07T04:45:49;3.45;;;1.08;;
23866;SDS011;12114;53.404;-1.502;2023-08-07T04:48:33;2.22;;;0.90;;
23866;SDS011;12114;53.404;-1.502;2023-08-07T04:51:17;2.08;;;0.82;;
23866;SDS011;12114;53.404;-1.502;2023-08-07T04:54:01;2.97;;;1.00;;
23866;SDS011;12114;53.404;-1.502;2023-08-07T04:56:45;4.82;;;1.00;;
23866;SDS011;12114;53.404;-1.502;2023-08-07T04:59:29;5.93;;;1.10;;
23866;SDS011;12114;53.404;-1.502;2023-08-07T05:02:14;4.87;;;1.00;;
23866;SDS011;12114;53.404;-1.502;2023-08-07T05:04:58;3.92;;;0.90;;
23866;SDS011;12114;53.404;-1.502;2023-08-07T05:07:42;5.18;;;1.00;;
23866;SDS011;12114;53.404;-1.502;2023-08-07T05:10:26;3.40;;;0.98;;
23866;SDS011;12114;53.404;-1.502;2023-08-07T05:13:10;4.93;;;0.98;;
23866;SDS011;12114;53.404;-1.502;2023-08-07T05:15:54;5.47;;;0.80;;
23866;SDS011;12114;53.404;-1.502;2023-08-07T05:18:38;1.38;;;0.75;;
23866;SDS011;12114;53.404;-1.502;2023-08-07T05:21:22;4.45;;;0.90;;
23866;SDS011;12114;53.404;-1.502;2023-08-07T05:24:06;2.55;;;0.73;;
23866;SDS011;12114;53.404;-1.502;2023-08-07T05:26:50;5.60;;;1.00;;
23866;SDS011;12114;53.404;-1.502;2023-08-07T05:29:34;3.72;;;1.02;;
23866;SDS011;12114;53.404;-1.502;2023-08-07T05:32:18;2.10;;;0.60;;
23866;SDS011;12114;53.404;-1.502;2023-08-07T05:35:02;3.20;;;0.60;;
23866;SDS011;12114;53.404;-1.502;2023-08-07T05:37:46;2.05;;;0.70;;
23866;SDS011;12114;53.404;-1.502;2023-08-07T05:40:29;2.05;;;0.70;;
23866;SDS011;12114;53.404;-1.502;2023-08-07T05:43:14;2.28;;;0.50;;
23866;SDS011;12114;53.404;-1.502;2023-08-07T05:48:44;3.05;;;0.77;;
23866;SDS011;12114;53.404;-1.502;2023-08-07T05:51:27;2.67;;;0.95;;
23866;SDS011;12114;53.404;-1.502;2023-08-07T05:54:11;4.07;;;0.82;;
23866;SDS011;12114;53.404;-1.502;2023-08-07T05:56:55;2.05;;;0.70;;
23866;SDS011;12114;53.404;-1.502;2023-08-07T05:59:39;3.90;;;0.70;;
23866;SDS011;12114;53.404;-1.502;2023-08-07T06:02:24;3.38;;;0.80;;
23866;SDS011;12114;53.404;-1.502;2023-08-07T06:05:08;3.25;;;0.65;;
23866;SDS011;12114;53.404;-1.502;2023-08-07T06:07:53;5.05;;;0.70;;
23866;SDS011;12114;53.404;-1.502;2023-08-07T06:10:37;3.25;;;0.80;;
23866;SDS011;12114;53.404;-1.502;2023-08-07T06:13:21;3.92;;;0.80;;
23866;SDS011;12114;53.404;-1.502;2023-08-07T06:16:05;8.38;;;1.00;;
23866;SDS011;12114;53.404;-1.502;2023-08-07T06:18:49;3.15;;;0.70;;
23866;SDS011;12114;53.404;-1.502;2023-08-07T06:21:33;1.80;;;0.73;;
23866;SDS011;12114;53.404;-1.502;2023-08-07T06:24:17;2.20;;;0.60;;
23866;SDS011;12114;53.404;-1.502;2023-08-07T06:27:02;2.15;;;0.60;;
23866;SDS011;12114;53.404;-1.502;2023-08-07T06:29:46;3.78;;;0.82;;
23866;SDS011;12114;53.404;-1.502;2023-08-07T06:32:30;2.45;;;0.80;;
23866;SDS011;12114;53.404;-1.502;2023-08-07T06:35:14;3.78;;;0.73;;
23866;SDS011;12114;53.404;-1.502;2023-08-07T06:37:58;3.45;;;0.90;;
23866;SDS011;12114;53.404;-1.502;2023-08-07T06:40:42;3.13;;;0.68;;
23866;SDS011;12114;53.404;-1.502;2023-08-07T06:43:26;6.78;;;0.95;;
23866;SDS011;12114;53.404;-1.502;2023-08-07T06:46:09;3.10;;;0.70;;
23866;SDS011;12114;53.404;-1.502;2023-08-07T06:48:55;3.33;;;0.80;;
23866;SDS011;12114;53.404;-1.502;2023-08-07T06:51:39;4.88;;;0.98;;
23866;SDS011;12114;53.404;-1.502;2023-08-07T06:54:23;2.42;;;0.70;;
23866;SDS011;12114;53.404;-1.502;2023-08-07T06:57:07;6.43;;;0.75;;
23866;SDS011;12114;53.404;-1.502;2023-08-07T06:59:51;5.78;;;1.25;;
23866;SDS011;12114;53.404;-1.502;2023-08-07T07:02:35;0.98;;;0.57;;
23866;SDS011;12114;53.404;-1.502;2023-08-07T07:05:19;6.65;;;1.00;;
23866;SDS011;12114;53.404;-1.502;2023-08-07T07:08:03;2.80;;;1.10;;
23866;SDS011;12114;53.404;-1.502;2023-08-07T07:10:47;3.42;;;0.60;;
23866;SDS011;12114;53.404;-1.502;2023-08-07T07:13:31;6.07;;;1.00;;
23866;SDS011;12114;53.404;-1.502;2023-08-07T07:16:14;2.30;;;0.70;;
23866;SDS011;12114;53.404;-1.502;2023-08-07T07:18:59;2.35;;;0.90;;
23866;SDS011;12114;53.404;-1.502;2023-08-07T07:21:43;3.80;;;0.80;;
23866;SDS011;12114;53.404;-1.502;2023-08-07T07:24:27;5.00;;;1.00;;
23866;SDS011;12114;53.404;-1.502;2023-08-07T07:27:11;5.05;;;0.90;;
23866;SDS011;12114;53.404;-1.502;2023-08-07T07:29:55;3.33;;;0.60;;
23866;SDS011;12114;53.404;-1.502;2023-08-07T07:32:39;1.98;;;0.82;;
23866;SDS011;12114;53.404;-1.502;2023-08-07T07:35:23;6.93;;;0.90;;
23866;SDS011;12114;53.404;-1.502;2023-08-07T07:38:08;2.38;;;0.80;;
23866;SDS011;12114;53.404;-1.502;2023-08-07T07:40:52;2.72;;;0.82;;
23866;SDS011;12114;53.404;-1.502;2023-08-07T07:43:40;5.50;;;1.00;;
23866;SDS011;12114;53.404;-1.502;2023-08-07T07:46:24;2.15;;;0.85;;
23866;SDS011;12114;53.404;-1.502;2023-08-07T07:49:08;2.83;;;1.00;;
23866;SDS011;12114;53.404;-1.502;2023-08-07T07:51:52;5.45;;;1.15;;
23866;SDS011;12114;53.404;-1.502;2023-08-07T07:54:35;5.53;;;1.10;;
23866;SDS011;12114;53.404;-1.502;2023-08-07T07:57:19;4.38;;;1.15;;
23866;SDS011;12114;53.404;-1.502;2023-08-07T08:00:04;4.22;;;1.42;;
23866;SDS011;12114;53.404;-1.502;2023-08-07T08:02:52;4.80;;;1.13;;
23866;SDS011;12114;53.404;-1.502;2023-08-07T08:05:36;4.75;;;1.25;;
23866;SDS011;12114;53.404;-1.502;2023-08-07T08:08:20;4.05;;;0.90;;
23866;SDS011;12114;53.404;-1.502;2023-08-07T08:11:04;4.68;;;1.10;;
23866;SDS011;12114;53.404;-1.502;2023-08-07T08:13:48;6.50;;;1.10;;
23866;SDS011;12114;53.404;-1.502;2023-08-07T08:16:32;4.65;;;1.10;;
23866;SDS011;12114;53.404;-1.502;2023-08-07T08:19:16;4.80;;;1.17;;
23866;SDS011;12114;53.404;-1.502;2023-08-07T08:22:00;3.72;;;1.08;;
23866;SDS011;12114;53.404;-1.502;2023-08-07T08:24:44;4.90;;;1.45;;
23866;SDS011;12114;53.404;-1.502;2023-08-07T08:27:28;3.58;;;1.10;;
23866;SDS011;12114;53.404;-1.502;2023-08-07T08:30:12;3.92;;;0.93;;
23866;SDS011;12114;53.404;-1.502;2023-08-07T08:32:56;2.53;;;1.00;;
23866;SDS011;12114;53.404;-1.502;2023-08-07T08:35:40;3.22;;;0.98;;
23866;SDS011;12114;53.404;-1.502;2023-08-07T08:38:25;3.15;;;1.20;;
23866;SDS011;12114;53.404;-1.502;2023-08-07T08:41:13;4.38;;;1.13;;
23866;SDS011;12114;53.404;-1.502;2023-08-07T08:43:57;2.67;;;1.00;;
23866;SDS011;12114;53.404;-1.502;2023-08-07T08:46:41;3.72;;;1.00;;
23866;SDS011;12114;53.404;-1.502;2023-08-07T08:49:28;4.00;;;1.10;;
23866;SDS011;12114;53.404;-1.502;2023-08-07T08:52:14;4.63;;;1.15;;
23866;SDS011;12114;53.404;-1.502;2023-08-07T08:54:59;3.10;;;0.95;;
23866;SDS011;12114;53.404;-1.502;2023-08-07T08:57:43;4.60;;;0.90;;
23866;SDS011;12114;53.404;-1.502;2023-08-07T09:00:27;4.82;;;1.27;;
23866;SDS011;12114;53.404;-1.502;2023-08-07T09:03:13;3.05;;;0.90;;
23866;SDS011;12114;53.404;-1.502;2023-08-07T09:05:57;3.95;;;0.90;;
23866;SDS011;12114;53.404;-1.502;2023-08-07T09:08:42;5.27;;;0.87;;
23866;SDS011;12114;53.404;-1.502;2023-08-07T09:11:27;4.23;;;0.93;;
23866;SDS011;12114;53.404;-1.502;2023-08-07T09:14:13;6.55;;;1.00;;
23866;SDS011;12114;53.404;-1.502;2023-08-07T09:16:59;3.90;;;1.08;;
23866;SDS011;12114;53.404;-1.502;2023-08-07T09:19:44;3.58;;;0.93;;
23866;SDS011;12114;53.404;-1.502;2023-08-07T09:22:28;2.30;;;0.75;;
23866;SDS011;12114;53.404;-1.502;2023-08-07T09:25:12;5.63;;;1.20;;
23866;SDS011;12114;53.404;-1.502;2023-08-07T09:27:56;5.18;;;1.13;;
23866;SDS011;12114;53.404;-1.502;2023-08-07T09:30:41;4.00;;;1.20;;
23866;SDS011;12114;53.404;-1.502;2023-08-07T09:33:26;7.28;;;1.13;;
23866;SDS011;12114;53.404;-1.502;2023-08-07T09:36:11;3.97;;;1.17;;
23866;SDS011;12114;53.404;-1.502;2023-08-07T09:38:55;5.87;;;1.53;;
23866;SDS011;12114;53.404;-1.502;2023-08-07T09:41:39;3.58;;;1.10;;
23866;SDS011;12114;53.404;-1.502;2023-08-07T09:44:23;4.55;;;1.00;;
23866;SDS011;12114;53.404;-1.502;2023-08-07T09:47:14;4.95;;;1.02;;
23866;SDS011;12114;53.404;-1.502;2023-08-07T09:49:58;4.85;;;1.10;;
23866;SDS011;12114;53.404;-1.502;2023-08-07T09:52:46;3.55;;;1.20;;
23866;SDS011;12114;53.404;-1.502;2023-08-07T09:55:29;2.22;;;1.00;;
23866;SDS011;12114;53.404;-1.502;2023-08-07T09:58:14;4.77;;;1.23;;
23866;SDS011;12114;53.404;-1.502;2023-08-07T10:01:00;4.18;;;1.02;;
23866;SDS011;12114;53.404;-1.502;2023-08-07T10:03:44;5.10;;;1.37;;
23866;SDS011;12114;53.404;-1.502;2023-08-07T10:06:28;5.43;;;1.20;;
23866;SDS011;12114;53.404;-1.502;2023-08-07T10:09:13;4.68;;;1.20;;
23866;SDS011;12114;53.404;-1.502;2023-08-07T10:11:57;3.63;;;0.90;;
23866;SDS011;12114;53.404;-1.502;2023-08-07T10:14:42;3.93;;;1.07;;
23866;SDS011;12114;53.404;-1.502;2023-08-07T10:17:26;9.30;;;1.40;;
23866;SDS011;12114;53.404;-1.502;2023-08-07T10:20:11;2.83;;;0.70;;
23866;SDS011;12114;53.404;-1.502;2023-08-07T10:22:57;4.10;;;0.98;;
23866;SDS011;12114;53.404;-1.502;2023-08-07T10:25:43;2.40;;;0.57;;
23866;SDS011;12114;53.404;-1.502;2023-08-07T10:28:29;3.63;;;0.88;;
23866;SDS011;12114;53.404;-1.502;2023-08-07T10:31:13;5.97;;;1.00;;
23866;SDS011;12114;53.404;-1.502;2023-08-07T10:33:58;3.00;;;0.73;;
23866;SDS011;12114;53.404;-1.502;2023-08-07T10:36:42;3.83;;;0.70;;
23866;SDS011;12114;53.404;-1.502;2023-08-07T10:39:26;4.53;;;0.95;;
23866;SDS011;12114;53.404;-1.502;2023-08-07T10:42:10;3.95;;;0.95;;
23866;SDS011;12114;53.404;-1.502;2023-08-07T10:44:55;3.60;;;0.80;;
23866;SDS011;12114;53.404;-1.502;2023-08-07T10:47:44;3.90;;;0.75;;
23866;SDS011;12114;53.404;-1.502;2023-08-07T10:53:41;4.38;;;0.98;;
23866;SDS011;12114;53.404;-1.502;2023-08-07T10:56:31;2.58;;;0.80;;
23866;SDS011;12114;53.404;-1.502;2023-08-07T10:59:15;6.60;;;1.30;;
23866;SDS011;12114;53.404;-1.502;2023-08-07T11:01:59;2.35;;;0.90;;
23866;SDS011;12114;53.404;-1.502;2023-08-07T11:04:43;4.15;;;0.73;;
23866;SDS011;12114;53.404;-1.502;2023-08-07T11:07:28;5.95;;;0.75;;
23866;SDS011;12114;53.404;-1.502;2023-08-07T11:10:13;2.05;;;0.57;;
23866;SDS011;12114;53.404;-1.502;2023-08-07T11:12:58;5.88;;;1.23;;
23866;SDS011;12114;53.404;-1.502;2023-08-07T11:15:43;4.47;;;1.05;;
23866;SDS011;12114;53.404;-1.502;2023-08-07T11:18:27;4.80;;;0.90;;
23866;SDS011;12114;53.404;-1.502;2023-08-07T11:21:11;3.05;;;0.90;;
23866;SDS011;12114;53.404;-1.502;2023-08-07T11:23:55;3.17;;;0.95;;
23866;SDS011;12114;53.404;-1.502;2023-08-07T11:26:39;5.07;;;0.93;;
23866;SDS011;12114;53.404;-1.502;2023-08-07T11:29:23;3.47;;;0.70;;
23866;SDS011;12114;53.404;-1.502;2023-08-07T11:32:09;4.55;;;0.98;;
23866;SDS011;12114;53.404;-1.502;2023-08-07T11:34:53;4.40;;;1.20;;
23866;SDS011;12114;53.404;-1.502;2023-08-07T11:37:44;5.38;;;0.90;;
23866;SDS011;12114;53.404;-1.502;2023-08-07T11:40:29;2.90;;;1.05;;
23866;SDS011;12114;53.404;-1.502;2023-08-07T11:43:13;5.05;;;1.02;;
23866;SDS011;12114;53.404;-1.502;2023-08-07T11:45:57;5.25;;;1.08;;
23866;SDS011;12114;53.404;-1.502;2023-08-07T11:48:43;3.05;;;1.23;;
23866;SDS011;12114;53.404;-1.502;2023-08-07T11:51:27;7.38;;;1.15;;
23866;SDS011;12114;53.404;-1.502;2023-08-07T11:54:14;4.60;;;0.95;;
23866;SDS011;12114;53.404;-1.502;2023-08-07T11:56:58;3.95;;;0.98;;
23866;SDS011;12114;53.404;-1.502;2023-08-07T11:59:42;3.38;;;0.90;;
23866;SDS011;12114;53.404;-1.502;2023-08-07T12:02:26;5.25;;;1.10;;
23866;SDS011;12114;53.404;-1.502;2023-08-07T12:05:10;4.40;;;1.05;;
23866;SDS011;12114;53.404;-1.502;2023-08-07T12:07:55;4.30;;;1.02;;
23866;SDS011;12114;53.404;-1.502;2023-08-07T12:10:39;3.92;;;0.95;;
23866;SDS011;12114;53.404;-1.502;2023-08-07T12:13:26;5.68;;;1.20;;
23866;SDS011;12114;53.404;-1.502;2023-08-07T12:16:14;3.67;;;0.90;;
23866;SDS011;12114;53.404;-1.502;2023-08-07T12:19:01;6.70;;;1.20;;
23866;SDS011;12114;53.404;-1.502;2023-08-07T12:21:45;3.42;;;0.95;;
23866;SDS011;12114;53.404;-1.502;2023-08-07T12:24:29;4.93;;;1.20;;
23866;SDS011;12114;53.404;-1.502;2023-08-07T12:27:13;5.63;;;1.05;;
23866;SDS011;12114;53.404;-1.502;2023-08-07T12:29:57;5.20;;;1.08;;
23866;SDS011;12114;53.404;-1.502;2023-08-07T12:32:41;5.75;;;1.45;;
23866;SDS011;12114;53.404;-1.502;2023-08-07T12:35:25;4.45;;;1.48;;
23866;SDS011;12114;53.404;-1.502;2023-08-07T12:38:09;4.05;;;1.52;;
23866;SDS011;12114;53.404;-1.502;2023-08-07T12:40:53;7.22;;;1.15;;
23866;SDS011;12114;53.404;-1.502;2023-08-07T12:43:37;5.28;;;1.05;;
23866;SDS011;12114;53.404;-1.502;2023-08-07T12:46:21;6.15;;;1.40;;
23866;SDS011;12114;53.404;-1.502;2023-08-07T12:49:05;3.90;;;1.30;;
23866;SDS011;12114;53.404;-1.502;2023-08-07T12:51:50;7.07;;;1.80;;
23866;SDS011;12114;53.404;-1.502;2023-08-07T12:54:36;4.68;;;1.35;;
23866;SDS011;12114;53.404;-1.502;2023-08-07T12:57:20;8.63;;;1.73;;
23866;SDS011;12114;53.404;-1.502;2023-08-07T13:00:04;5.55;;;1.10;;
23866;SDS011;12114;53.404;-1.502;2023-08-07T13:02:49;7.82;;;1.55;;
23866;SDS011;12114;53.404;-1.502;2023-08-07T13:05:33;5.80;;;1.30;;
23866;SDS011;12114;53.404;-1.502;2023-08-07T13:08:17;5.90;;;1.20;;
23866;SDS011;12114;53.404;-1.502;2023-08-07T13:11:01;7.03;;;1.80;;
23866;SDS011;12114;53.404;-1.502;2023-08-07T13:13:45;3.15;;;1.13;;
23866;SDS011;12114;53.404;-1.502;2023-08-07T13:16:29;6.10;;;1.15;;
23866;SDS011;12114;53.404;-1.502;2023-08-07T13:19:13;5.25;;;1.10;;
23866;SDS011;12114;53.404;-1.502;2023-08-07T13:21:58;6.25;;;1.27;;
23866;SDS011;12114;53.404;-1.502;2023-08-07T13:24:43;7.97;;;1.30;;
23866;SDS011;12114;53.404;-1.502;2023-08-07T13:27:27;4.78;;;1.05;;
23866;SDS011;12114;53.404;-1.502;2023-08-07T13:30:11;4.28;;;1.10;;
23866;SDS011;12114;53.404;-1.502;2023-08-07T13:32:54;8.55;;;1.10;;
23866;SDS011;12114;53.404;-1.502;2023-08-07T13:35:38;5.03;;;0.93;;
23866;SDS011;12114;53.404;-1.502;2023-08-07T13:38:22;3.85;;;1.10;;
23866;SDS011;12114;53.404;-1.502;2023-08-07T13:41:06;5.07;;;1.02;;
23866;SDS011;12114;53.404;-1.502;2023-08-07T13:43:51;5.57;;;1.10;;
23866;SDS011;12114;53.404;-1.502;2023-08-07T13:46:35;3.97;;;1.13;;
23866;SDS011;12114;53.404;-1.502;2023-08-07T13:49:19;7.13;;;1.10;;
23866;SDS011;12114;53.404;-1.502;2023-08-07T13:52:04;4.90;;;1.05;;
23866;SDS011;12114;53.404;-1.502;2023-08-07T13:54:48;5.05;;;1.10;;
23866;SDS011;12114;53.404;-1.502;2023-08-07T13:57:32;2.85;;;0.90;;
23866;SDS011;12114;53.404;-1.502;2023-08-07T14:00:16;6.35;;;1.00;;
23866;SDS011;12114;53.404;-1.502;2023-08-07T14:03:01;4.57;;;0.93;;
23866;SDS011;12114;53.404;-1.502;2023-08-07T14:05:45;3.78;;;0.98;;
23866;SDS011;12114;53.404;-1.502;2023-08-07T14:08:29;6.80;;;0.90;;
23866;SDS011;12114;53.404;-1.502;2023-08-07T14:11:13;4.88;;;1.23;;
23866;SDS011;12114;53.404;-1.502;2023-08-07T14:13:58;3.97;;;0.90;;
23866;SDS011;12114;53.404;-1.502;2023-08-07T14:16:42;6.45;;;1.00;;
23866;SDS011;12114;53.404;-1.502;2023-08-07T14:19:26;6.82;;;1.00;;
23866;SDS011;12114;53.404;-1.502;2023-08-07T14:22:11;3.65;;;0.75;;
23866;SDS011;12114;53.404;-1.502;2023-08-07T14:24:54;3.10;;;0.70;;
23866;SDS011;12114;53.404;-1.502;2023-08-07T14:27:39;2.13;;;0.70;;
23866;SDS011;12114;53.404;-1.502;2023-08-07T14:30:23;2.35;;;0.70;;
23866;SDS011;12114;53.404;-1.502;2023-08-07T14:33:07;3.63;;;1.00;;
23866;SDS011;12114;53.404;-1.502;2023-08-07T14:35:51;2.75;;;0.60;;
23866;SDS011;12114;53.404;-1.502;2023-08-07T14:38:35;2.17;;;0.65;;
23866;SDS011;12114;53.404;-1.502;2023-08-07T14:41:19;5.32;;;0.65;;
23866;SDS011;12114;53.404;-1.502;2023-08-07T14:44:03;2.78;;;0.60;;
23866;SDS011;12114;53.404;-1.502;2023-08-07T14:46:47;3.05;;;0.70;;
23866;SDS011;12114;53.404;-1.502;2023-08-07T14:49:31;3.13;;;0.68;;
23866;SDS011;12114;53.404;-1.502;2023-08-07T14:52:15;4.40;;;0.70;;
23866;SDS011;12114;53.404;-1.502;2023-08-07T14:54:59;2.95;;;0.77;;
23866;SDS011;12114;53.404;-1.502;2023-08-07T14:57:43;1.98;;;0.70;;
23866;SDS011;12114;53.404;-1.502;2023-08-07T15:00:27;4.72;;;0.63;;
23866;SDS011;12114;53.404;-1.502;2023-08-07T15:03:11;2.00;;;0.55;;
23866;SDS011;12114;53.404;-1.502;2023-08-07T15:05:56;2.95;;;0.70;;
23866;SDS011;12114;53.404;-1.502;2023-08-07T15:08:41;3.35;;;0.70;;
23866;SDS011;12114;53.404;-1.502;2023-08-07T15:11:25;2.45;;;0.43;;
23866;SDS011;12114;53.404;-1.502;2023-08-07T15:14:09;1.25;;;0.50;;
23866;SDS011;12114;53.404;-1.502;2023-08-07T15:16:53;4.80;;;0.52;;
23866;SDS011;12114;53.404;-1.502;2023-08-07T15:19:37;1.95;;;0.70;;
23866;SDS011;12114;53.404;-1.502;2023-08-07T15:22:21;2.28;;;0.50;;
23866;SDS011;12114;53.404;-1.502;2023-08-07T15:25:05;2.75;;;0.50;;
23866;SDS011;12114;53.404;-1.502;2023-08-07T15:27:50;2.28;;;0.45;;
23866;SDS011;12114;53.404;-1.502;2023-08-07T15:30:34;1.55;;;0.60;;
23866;SDS011;12114;53.404;-1.502;2023-08-07T15:33:18;2.35;;;0.77;;
23866;SDS011;12114;53.404;-1.502;2023-08-07T15:36:02;2.17;;;0.70;;
23866;SDS011;12114;53.404;-1.502;2023-08-07T15:38:46;2.47;;;0.60;;
23866;SDS011;12114;53.404;-1.502;2023-08-07T15:41:30;2.88;;;0.50;;
23866;SDS011;12114;53.404;-1.502;2023-08-07T15:44:14;4.75;;;0.57;;
23866;SDS011;12114;53.404;-1.502;2023-08-07T15:46:58;1.83;;;0.70;;
23866;SDS011;12114;53.404;-1.502;2023-08-07T15:49:42;2.38;;;0.45;;
23866;SDS011;12114;53.404;-1.502;2023-08-07T15:52:28;1.83;;;0.50;;
23866;SDS011;12114;53.404;-1.502;2023-08-07T15:55:12;3.08;;;0.43;;
23866;SDS011;12114;53.404;-1.502;2023-08-07T15:57:56;1.95;;;0.60;;
23866;SDS011;12114;53.404;-1.502;2023-08-07T16:00:41;1.25;;;0.38;;
23866;SDS011;12114;53.404;-1.502;2023-08-07T16:03:25;1.48;;;0.50;;
23866;SDS011;12114;53.404;-1.502;2023-08-07T16:06:09;0.98;;;0.50;;
23866;SDS011;12114;53.404;-1.502;2023-08-07T16:08:52;0.85;;;0.45;;
23866;SDS011;12114;53.404;-1.502;2023-08-07T16:11:38;1.75;;;0.82;;
23866;SDS011;12114;53.404;-1.502;2023-08-07T16:14:22;1.60;;;0.50;;
23866;SDS011;12114;53.404;-1.502;2023-08-07T16:17:07;3.83;;;0.63;;
23866;SDS011;12114;53.404;-1.502;2023-08-07T16:19:51;2.63;;;0.68;;
23866;SDS011;12114;53.404;-1.502;2023-08-07T16:22:34;1.30;;;0.40;;